Domov               UVHVVR             MKGP            O straneh              
ZDRAVSTVENO VARSTVO RASTLIN
  MREŽA AGROMET. POSTAJ
 ► PROGNOSTIČNA OBVESTILA
AGROMETEOROLOŠKI PODATKI -
ARSO
OBVLADOVANJE TVEGANJ ZARADI
NEUGODNIH VREMENSKIH RAZMER
  ► NARAVNE NESREČE
  ► SUŠA/MOČA
  ► NAMAKANJE
  ► ŽLED (gozdarstvo)
KARTOGRAFSKI PRIKAZI
SPLETNE POVEZAVE
PROJEKTI IN PUBLIKACIJE

AGROMETEOROLOŠKA MREŽA: VREMENSKE POSTAJE IN FENOLOŠKA OPAZOVANJA

Pregled podatkov za lokacijo Šlovrenc, meteorološka postaja 859088

Pregled senzorjev na lokaciji

ID Ime Zadnja
vrednost
Datum
zadnje
spremembe
Tip
senzorja
3973 Temperatura 2 m ( °C) 22,07 °C 24.8.2017 08:30 50YA
3974 Relativna vlaga 2 m (% RH) 77,94 % RH 24.8.2017 08:30 50YA
3975 Omočenost lista (U) 0 U 24.8.2017 08:30 A730WET
3976 Padavine 0.2 mm (mm) 0 mm 24.8.2017 08:30 Rain-O-Matic

Pregled podatkov zadnjih 24 ur

Zap.
št.
Datum in čas Šlovrenc
Omočenost
lista
Padavine
0.2
mm
Relativna
vlaga
2
m
Temperatura
2
m
0 24.8.2017 07:30 0 0 77,94 22,07
1 24.8.2017 07:00 0 0 98,65 18,21
2 24.8.2017 06:30 0 0 100 15,56
3 24.8.2017 06:00 0 0 100 13,29
4 24.8.2017 05:30 0 0 100 12,82
5 24.8.2017 05:00 0 0 100 12,78
6 24.8.2017 04:30 0 0 100 13,03
7 24.8.2017 04:00 0 0 100 13,14
8 24.8.2017 03:30 0 0 100 13,53
9 24.8.2017 03:00 0 0 100 13,5
10 24.8.2017 02:30 0 0 100 13,62
11 24.8.2017 02:00 0 0 100 13,78
12 24.8.2017 01:30 0 0 100 13,89
13 24.8.2017 01:00 0 0 100 14,02
14 24.8.2017 00:30 0 0 100 14,21
15 24.8.2017 00:00 0 0 100 14,37
16 23.8.2017 23:30 0 0 100 14,64
17 23.8.2017 23:00 0 0 99,92 14,87
18 23.8.2017 22:30 0 0 99,58 15,07
19 23.8.2017 22:00 0 0 98,76 15,35
20 23.8.2017 21:30 0 0 97,87 15,82
21 23.8.2017 21:00 0 0 96,73 16,29
22 23.8.2017 20:30 0 0 95,23 16,78
23 23.8.2017 20:00 0 0 93,01 17,5
24 23.8.2017 19:30 0 0 88,97 18,48
25 23.8.2017 19:00 0 0 82,93 20,14
26 23.8.2017 18:30 0 0 71,85 22,87
27 23.8.2017 18:00 0 0 61,09 25,04
28 23.8.2017 17:30 0 0 55,91 25,99
29 23.8.2017 17:00 0 0 53,92 26,38
30 23.8.2017 16:30 0 0 54,11 26,22
31 23.8.2017 16:00 0 0 52,68 26,79
32 23.8.2017 15:30 0 0 55,02 26,3
33 23.8.2017 15:00 0 0 51,1 27,07
34 23.8.2017 14:30 0 0 51,9 27,27
35 23.8.2017 14:00 0 0 48,38 28,25
36 23.8.2017 13:30 0 0 47,1 29,42
37 23.8.2017 13:00 0 0 46,05 29,23
38 23.8.2017 12:30 0 0 45,78 29,46
39 23.8.2017 12:00 0 0 44,93 28,8
40 23.8.2017 11:30 0 0 46,4 27,64
41 23.8.2017 11:00 0 0 44,58 28,67
42 23.8.2017 10:30 0 0 45,95 27,64
43 23.8.2017 10:00 0 0 50,03 26,03
44 23.8.2017 09:30 0 0 56,65 23,84
45 23.8.2017 09:00 0 0 59,72 22,86
© 2011 Ministrstvo za kmetijstvo, gozdarstvo in prehrano. Vse pravice pridržane.